sensor_id;sensor_type;location;lat;lon;timestamp;P1;durP1;ratioP1;P2;durP2;ratioP2
33357;SDS011;19717;42.614;23.418;2023-06-26T00:00:21;4.38;;;3.75;;
33357;SDS011;19717;42.614;23.418;2023-06-26T00:02:48;3.97;;;3.67;;
33357;SDS011;19717;42.614;23.418;2023-06-26T00:05:13;3.95;;;3.65;;
33357;SDS011;19717;42.614;23.418;2023-06-26T00:07:39;3.83;;;3.53;;
33357;SDS011;19717;42.614;23.418;2023-06-26T00:10:06;3.33;;;3.13;;
33357;SDS011;19717;42.614;23.418;2023-06-26T00:12:32;3.85;;;3.55;;
33357;SDS011;19717;42.614;23.418;2023-06-26T00:14:58;3.47;;;3.28;;
33357;SDS011;19717;42.614;23.418;2023-06-26T00:17:24;3.58;;;3.13;;
33357;SDS011;19717;42.614;23.418;2023-06-26T00:19:50;3.75;;;3.45;;
33357;SDS011;19717;42.614;23.418;2023-06-26T00:22:16;3.70;;;3.40;;
33357;SDS011;19717;42.614;23.418;2023-06-26T00:24:42;3.13;;;2.92;;
33357;SDS011;19717;42.614;23.418;2023-06-26T00:27:10;3.58;;;3.35;;
33357;SDS011;19717;42.614;23.418;2023-06-26T00:29:36;3.35;;;3.05;;
33357;SDS011;19717;42.614;23.418;2023-06-26T00:32:03;3.50;;;3.20;;
33357;SDS011;19717;42.614;23.418;2023-06-26T00:34:29;3.78;;;3.47;;
33357;SDS011;19717;42.614;23.418;2023-06-26T00:36:56;3.25;;;3.05;;
33357;SDS011;19717;42.614;23.418;2023-06-26T00:39:22;3.00;;;2.80;;
33357;SDS011;19717;42.614;23.418;2023-06-26T00:41:50;3.20;;;3.00;;
33357;SDS011;19717;42.614;23.418;2023-06-26T00:44:18;3.28;;;3.00;;
33357;SDS011;19717;42.614;23.418;2023-06-26T00:46:45;3.30;;;3.00;;
33357;SDS011;19717;42.614;23.418;2023-06-26T00:49:11;3.13;;;2.92;;
33357;SDS011;19717;42.614;23.418;2023-06-26T00:51:37;3.20;;;3.00;;
33357;SDS011;19717;42.614;23.418;2023-06-26T00:54:03;3.05;;;2.85;;
33357;SDS011;19717;42.614;23.418;2023-06-26T00:56:31;3.10;;;2.80;;
33357;SDS011;19717;42.614;23.418;2023-06-26T00:58:57;3.28;;;2.70;;
33357;SDS011;19717;42.614;23.418;2023-06-26T01:01:23;2.88;;;2.67;;
33357;SDS011;19717;42.614;23.418;2023-06-26T01:03:50;2.83;;;2.50;;
33357;SDS011;19717;42.614;23.418;2023-06-26T01:06:17;2.58;;;2.38;;
33357;SDS011;19717;42.614;23.418;2023-06-26T01:08:44;2.90;;;2.60;;
33357;SDS011;19717;42.614;23.418;2023-06-26T01:11:10;2.50;;;2.40;;
33357;SDS011;19717;42.614;23.418;2023-06-26T01:13:37;2.25;;;2.15;;
33357;SDS011;19717;42.614;23.418;2023-06-26T01:16:04;2.50;;;2.30;;
33357;SDS011;19717;42.614;23.418;2023-06-26T01:18:31;2.25;;;2.10;;
33357;SDS011;19717;42.614;23.418;2023-06-26T01:20:58;2.30;;;2.20;;
33357;SDS011;19717;42.614;23.418;2023-06-26T01:23:29;2.20;;;2.10;;
33357;SDS011;19717;42.614;23.418;2023-06-26T01:28:22;2.38;;;2.22;;
33357;SDS011;19717;42.614;23.418;2023-06-26T01:30:49;3.00;;;2.38;;
33357;SDS011;19717;42.614;23.418;2023-06-26T01:33:16;2.20;;;2.08;;
33357;SDS011;19717;42.614;23.418;2023-06-26T01:35:43;2.00;;;1.90;;
33357;SDS011;19717;42.614;23.418;2023-06-26T01:40:39;2.67;;;2.47;;
33357;SDS011;19717;42.614;23.418;2023-06-26T01:43:06;2.80;;;2.60;;
33357;SDS011;19717;42.614;23.418;2023-06-26T01:45:33;2.88;;;2.30;;
33357;SDS011;19717;42.614;23.418;2023-06-26T01:47:59;2.50;;;2.30;;
33357;SDS011;19717;42.614;23.418;2023-06-26T01:50:28;2.30;;;2.20;;
33357;SDS011;19717;42.614;23.418;2023-06-26T01:53:01;3.15;;;2.47;;
33357;SDS011;19717;42.614;23.418;2023-06-26T01:58:04;2.70;;;2.50;;
33357;SDS011;19717;42.614;23.418;2023-06-26T02:00:31;2.50;;;2.35;;
33357;SDS011;19717;42.614;23.418;2023-06-26T02:02:58;2.50;;;2.30;;
33357;SDS011;19717;42.614;23.418;2023-06-26T02:05:24;2.60;;;2.40;;
33357;SDS011;19717;42.614;23.418;2023-06-26T02:07:50;2.40;;;2.30;;
33357;SDS011;19717;42.614;23.418;2023-06-26T02:10:17;2.35;;;2.22;;
33357;SDS011;19717;42.614;23.418;2023-06-26T02:12:43;2.30;;;2.20;;
33357;SDS011;19717;42.614;23.418;2023-06-26T02:15:09;2.50;;;2.30;;
33357;SDS011;19717;42.614;23.418;2023-06-26T02:17:35;2.78;;;2.58;;
33357;SDS011;19717;42.614;23.418;2023-06-26T02:20:01;3.42;;;2.70;;
33357;SDS011;19717;42.614;23.418;2023-06-26T02:22:28;2.90;;;2.70;;
33357;SDS011;19717;42.614;23.418;2023-06-26T02:24:54;2.60;;;2.40;;
33357;SDS011;19717;42.614;23.418;2023-06-26T02:27:20;2.42;;;2.33;;
33357;SDS011;19717;42.614;23.418;2023-06-26T02:29:46;2.70;;;2.50;;
33357;SDS011;19717;42.614;23.418;2023-06-26T02:32:12;2.63;;;2.45;;
33357;SDS011;19717;42.614;23.418;2023-06-26T02:34:38;2.80;;;2.60;;
33357;SDS011;19717;42.614;23.418;2023-06-26T02:37:04;2.55;;;2.42;;
33357;SDS011;19717;42.614;23.418;2023-06-26T02:39:32;2.60;;;2.40;;
33357;SDS011;19717;42.614;23.418;2023-06-26T02:41:58;2.33;;;2.22;;
33357;SDS011;19717;42.614;23.418;2023-06-26T02:44:24;2.70;;;2.50;;
33357;SDS011;19717;42.614;23.418;2023-06-26T02:46:50;2.58;;;2.40;;
33357;SDS011;19717;42.614;23.418;2023-06-26T02:49:16;3.10;;;2.85;;
33357;SDS011;19717;42.614;23.418;2023-06-26T02:51:42;2.90;;;2.70;;
33357;SDS011;19717;42.614;23.418;2023-06-26T02:54:08;4.05;;;3.00;;
33357;SDS011;19717;42.614;23.418;2023-06-26T02:56:34;2.67;;;2.47;;
33357;SDS011;19717;42.614;23.418;2023-06-26T02:59:00;3.05;;;2.85;;
33357;SDS011;19717;42.614;23.418;2023-06-26T03:01:26;3.20;;;3.00;;
33357;SDS011;19717;42.614;23.418;2023-06-26T03:03:52;3.05;;;2.85;;
33357;SDS011;19717;42.614;23.418;2023-06-26T03:06:18;3.10;;;2.90;;
33357;SDS011;19717;42.614;23.418;2023-06-26T03:08:44;2.88;;;2.67;;
33357;SDS011;19717;42.614;23.418;2023-06-26T03:11:10;3.17;;;2.97;;
33357;SDS011;19717;42.614;23.418;2023-06-26T03:13:36;3.03;;;2.80;;
33357;SDS011;19717;42.614;23.418;2023-06-26T03:16:03;3.20;;;3.00;;
33357;SDS011;19717;42.614;23.418;2023-06-26T03:18:29;3.30;;;3.10;;
33357;SDS011;19717;42.614;23.418;2023-06-26T03:20:55;3.85;;;3.00;;
33357;SDS011;19717;42.614;23.418;2023-06-26T03:23:22;3.50;;;3.20;;
33357;SDS011;19717;42.614;23.418;2023-06-26T03:25:49;3.58;;;3.38;;
33357;SDS011;19717;42.614;23.418;2023-06-26T03:28:15;3.40;;;3.10;;
33357;SDS011;19717;42.614;23.418;2023-06-26T03:30:41;3.25;;;3.05;;
33357;SDS011;19717;42.614;23.418;2023-06-26T03:33:08;3.17;;;2.88;;
33357;SDS011;19717;42.614;23.418;2023-06-26T03:35:34;3.13;;;2.92;;
33357;SDS011;19717;42.614;23.418;2023-06-26T03:38:00;3.10;;;2.90;;
33357;SDS011;19717;42.614;23.418;2023-06-26T03:40:26;3.10;;;2.70;;
33357;SDS011;19717;42.614;23.418;2023-06-26T03:42:52;2.97;;;2.78;;
33357;SDS011;19717;42.614;23.418;2023-06-26T03:45:18;3.10;;;2.90;;
33357;SDS011;19717;42.614;23.418;2023-06-26T03:47:45;3.20;;;3.00;;
33357;SDS011;19717;42.614;23.418;2023-06-26T03:50:14;3.30;;;3.10;;
33357;SDS011;19717;42.614;23.418;2023-06-26T03:52:40;3.20;;;3.00;;
33357;SDS011;19717;42.614;23.418;2023-06-26T03:55:06;2.92;;;2.75;;
33357;SDS011;19717;42.614;23.418;2023-06-26T03:57:32;2.97;;;2.78;;
33357;SDS011;19717;42.614;23.418;2023-06-26T03:59:58;3.00;;;2.80;;
33357;SDS011;19717;42.614;23.418;2023-06-26T04:02:24;2.92;;;2.72;;
33357;SDS011;19717;42.614;23.418;2023-06-26T04:04:50;2.92;;;2.72;;
33357;SDS011;19717;42.614;23.418;2023-06-26T04:07:17;3.22;;;3.03;;
33357;SDS011;19717;42.614;23.418;2023-06-26T04:09:43;3.13;;;2.92;;
33357;SDS011;19717;42.614;23.418;2023-06-26T04:12:09;3.70;;;3.40;;
33357;SDS011;19717;42.614;23.418;2023-06-26T04:14:35;3.03;;;2.83;;
33357;SDS011;19717;42.614;23.418;2023-06-26T04:17:01;3.42;;;3.20;;
33357;SDS011;19717;42.614;23.418;2023-06-26T04:19:28;3.38;;;3.17;;
33357;SDS011;19717;42.614;23.418;2023-06-26T04:21:55;3.30;;;3.00;;
33357;SDS011;19717;42.614;23.418;2023-06-26T04:24:21;3.20;;;3.00;;
33357;SDS011;19717;42.614;23.418;2023-06-26T04:26:47;2.97;;;2.78;;
33357;SDS011;19717;42.614;23.418;2023-06-26T04:29:13;2.97;;;2.78;;
33357;SDS011;19717;42.614;23.418;2023-06-26T04:31:39;2.70;;;2.60;;
33357;SDS011;19717;42.614;23.418;2023-06-26T04:34:05;2.95;;;2.75;;
33357;SDS011;19717;42.614;23.418;2023-06-26T04:36:31;3.13;;;2.92;;
33357;SDS011;19717;42.614;23.418;2023-06-26T04:38:58;3.13;;;2.92;;
33357;SDS011;19717;42.614;23.418;2023-06-26T04:41:25;2.92;;;2.70;;
33357;SDS011;19717;42.614;23.418;2023-06-26T04:43:51;2.90;;;2.70;;
33357;SDS011;19717;42.614;23.418;2023-06-26T04:46:17;2.90;;;2.70;;
33357;SDS011;19717;42.614;23.418;2023-06-26T04:48:43;2.92;;;2.72;;
33357;SDS011;19717;42.614;23.418;2023-06-26T04:51:12;2.97;;;2.40;;
33357;SDS011;19717;42.614;23.418;2023-06-26T04:53:38;2.95;;;2.75;;
33357;SDS011;19717;42.614;23.418;2023-06-26T04:56:04;2.95;;;2.75;;
33357;SDS011;19717;42.614;23.418;2023-06-26T04:58:30;3.15;;;2.95;;
33357;SDS011;19717;42.614;23.418;2023-06-26T05:00:56;3.17;;;2.97;;
33357;SDS011;19717;42.614;23.418;2023-06-26T05:03:23;3.25;;;2.90;;
33357;SDS011;19717;42.614;23.418;2023-06-26T05:05:49;2.63;;;2.53;;
33357;SDS011;19717;42.614;23.418;2023-06-26T05:08:16;3.15;;;2.90;;
33357;SDS011;19717;42.614;23.418;2023-06-26T05:10:43;3.88;;;3.03;;
33357;SDS011;19717;42.614;23.418;2023-06-26T05:13:09;2.95;;;2.75;;
33357;SDS011;19717;42.614;23.418;2023-06-26T05:15:35;3.20;;;3.00;;
33357;SDS011;19717;42.614;23.418;2023-06-26T05:18:01;3.05;;;2.85;;
33357;SDS011;19717;42.614;23.418;2023-06-26T05:20:27;2.80;;;2.60;;
33357;SDS011;19717;42.614;23.418;2023-06-26T05:22:53;2.90;;;2.70;;
33357;SDS011;19717;42.614;23.418;2023-06-26T05:25:20;2.83;;;2.63;;
33357;SDS011;19717;42.614;23.418;2023-06-26T05:27:46;3.20;;;2.90;;
33357;SDS011;19717;42.614;23.418;2023-06-26T05:30:13;3.20;;;3.00;;
33357;SDS011;19717;42.614;23.418;2023-06-26T05:32:39;2.72;;;2.53;;
33357;SDS011;19717;42.614;23.418;2023-06-26T05:35:06;3.10;;;2.90;;
33357;SDS011;19717;42.614;23.418;2023-06-26T05:37:32;2.95;;;2.75;;
33357;SDS011;19717;42.614;23.418;2023-06-26T05:40:02;3.00;;;2.80;;
33357;SDS011;19717;42.614;23.418;2023-06-26T05:42:30;2.85;;;2.65;;
33357;SDS011;19717;42.614;23.418;2023-06-26T05:44:56;3.70;;;2.65;;
33357;SDS011;19717;42.614;23.418;2023-06-26T05:47:22;3.10;;;2.80;;
33357;SDS011;19717;42.614;23.418;2023-06-26T05:49:48;3.05;;;2.85;;
33357;SDS011;19717;42.614;23.418;2023-06-26T05:52:15;2.58;;;2.47;;
33357;SDS011;19717;42.614;23.418;2023-06-26T05:54:41;2.58;;;2.47;;
33357;SDS011;19717;42.614;23.418;2023-06-26T05:57:07;2.53;;;2.40;;
33357;SDS011;19717;42.614;23.418;2023-06-26T05:59:33;2.75;;;2.65;;
33357;SDS011;19717;42.614;23.418;2023-06-26T06:02:02;2.53;;;2.42;;
33357;SDS011;19717;42.614;23.418;2023-06-26T06:04:28;2.60;;;2.50;;
33357;SDS011;19717;42.614;23.418;2023-06-26T06:06:54;2.70;;;2.58;;
33357;SDS011;19717;42.614;23.418;2023-06-26T06:09:20;3.08;;;2.67;;
33357;SDS011;19717;42.614;23.418;2023-06-26T06:11:46;2.55;;;2.40;;
33357;SDS011;19717;42.614;23.418;2023-06-26T06:14:12;3.08;;;2.78;;
33357;SDS011;19717;42.614;23.418;2023-06-26T06:16:38;2.88;;;2.67;;
33357;SDS011;19717;42.614;23.418;2023-06-26T06:19:04;2.42;;;2.33;;
33357;SDS011;19717;42.614;23.418;2023-06-26T06:21:32;2.53;;;2.42;;
33357;SDS011;19717;42.614;23.418;2023-06-26T06:24:01;2.63;;;2.42;;
33357;SDS011;19717;42.614;23.418;2023-06-26T06:26:28;3.00;;;2.80;;
33357;SDS011;19717;42.614;23.418;2023-06-26T06:28:54;2.70;;;2.50;;
33357;SDS011;19717;42.614;23.418;2023-06-26T06:31:21;2.45;;;2.35;;
33357;SDS011;19717;42.614;23.418;2023-06-26T06:33:47;2.20;;;2.10;;
33357;SDS011;19717;42.614;23.418;2023-06-26T06:36:13;2.60;;;2.40;;
33357;SDS011;19717;42.614;23.418;2023-06-26T06:38:42;2.30;;;2.20;;
33357;SDS011;19717;42.614;23.418;2023-06-26T06:41:08;2.67;;;2.20;;
33357;SDS011;19717;42.614;23.418;2023-06-26T06:43:34;2.30;;;2.10;;
33357;SDS011;19717;42.614;23.418;2023-06-26T06:46:01;2.55;;;2.22;;
33357;SDS011;19717;42.614;23.418;2023-06-26T06:48:27;2.10;;;2.00;;
33357;SDS011;19717;42.614;23.418;2023-06-26T06:50:53;2.05;;;1.95;;
33357;SDS011;19717;42.614;23.418;2023-06-26T06:53:19;1.95;;;1.85;;
33357;SDS011;19717;42.614;23.418;2023-06-26T06:55:47;2.60;;;2.40;;
33357;SDS011;19717;42.614;23.418;2023-06-26T06:58:13;2.15;;;1.98;;
33357;SDS011;19717;42.614;23.418;2023-06-26T07:00:41;2.17;;;2.08;;
33357;SDS011;19717;42.614;23.418;2023-06-26T07:03:07;2.28;;;2.17;;
33357;SDS011;19717;42.614;23.418;2023-06-26T07:05:33;2.30;;;2.20;;
33357;SDS011;19717;42.614;23.418;2023-06-26T07:07:59;2.13;;;2.03;;
33357;SDS011;19717;42.614;23.418;2023-06-26T07:10:25;2.50;;;2.33;;
33357;SDS011;19717;42.614;23.418;2023-06-26T07:12:51;1.67;;;1.58;;
33357;SDS011;19717;42.614;23.418;2023-06-26T07:15:17;1.80;;;1.70;;
33357;SDS011;19717;42.614;23.418;2023-06-26T07:17:45;1.90;;;1.80;;
33357;SDS011;19717;42.614;23.418;2023-06-26T07:20:11;1.95;;;1.85;;
33357;SDS011;19717;42.614;23.418;2023-06-26T07:22:40;1.77;;;1.67;;
33357;SDS011;19717;42.614;23.418;2023-06-26T07:25:10;1.80;;;1.70;;
33357;SDS011;19717;42.614;23.418;2023-06-26T07:27:36;1.83;;;1.73;;
33357;SDS011;19717;42.614;23.418;2023-06-26T07:30:02;1.67;;;1.58;;
33357;SDS011;19717;42.614;23.418;2023-06-26T07:32:28;1.70;;;1.60;;
33357;SDS011;19717;42.614;23.418;2023-06-26T07:34:54;1.77;;;1.67;;
33357;SDS011;19717;42.614;23.418;2023-06-26T07:37:20;1.80;;;1.70;;
33357;SDS011;19717;42.614;23.418;2023-06-26T07:39:47;1.88;;;1.77;;
33357;SDS011;19717;42.614;23.418;2023-06-26T07:42:13;1.63;;;1.52;;
33357;SDS011;19717;42.614;23.418;2023-06-26T07:44:39;1.70;;;1.60;;
33357;SDS011;19717;42.614;23.418;2023-06-26T07:47:05;1.58;;;1.48;;
33357;SDS011;19717;42.614;23.418;2023-06-26T07:49:31;1.40;;;1.40;;
33357;SDS011;19717;42.614;23.418;2023-06-26T07:51:57;1.70;;;1.60;;
33357;SDS011;19717;42.614;23.418;2023-06-26T07:54:23;1.70;;;1.60;;
33357;SDS011;19717;42.614;23.418;2023-06-26T07:59:19;1.30;;;1.20;;
33357;SDS011;19717;42.614;23.418;2023-06-26T08:01:47;1.35;;;1.20;;
33357;SDS011;19717;42.614;23.418;2023-06-26T08:04:13;1.38;;;1.27;;
33357;SDS011;19717;42.614;23.418;2023-06-26T08:06:39;1.08;;;1.08;;
33357;SDS011;19717;42.614;23.418;2023-06-26T08:09:05;1.35;;;1.25;;
33357;SDS011;19717;42.614;23.418;2023-06-26T08:11:32;1.25;;;1.25;;
33357;SDS011;19717;42.614;23.418;2023-06-26T08:13:58;1.23;;;1.13;;
33357;SDS011;19717;42.614;23.418;2023-06-26T08:16:25;2.05;;;1.20;;
33357;SDS011;19717;42.614;23.418;2023-06-26T08:18:51;1.25;;;0.98;;
33357;SDS011;19717;42.614;23.418;2023-06-26T08:21:17;1.20;;;1.20;;
33357;SDS011;19717;42.614;23.418;2023-06-26T08:23:43;1.08;;;1.00;;
33357;SDS011;19717;42.614;23.418;2023-06-26T08:26:16;1.02;;;1.00;;
33357;SDS011;19717;42.614;23.418;2023-06-26T08:28:42;1.00;;;1.00;;
33357;SDS011;19717;42.614;23.418;2023-06-26T08:31:08;0.98;;;0.98;;
33357;SDS011;19717;42.614;23.418;2023-06-26T08:33:34;0.80;;;0.80;;
33357;SDS011;19717;42.614;23.418;2023-06-26T08:36:00;1.00;;;1.00;;
33357;SDS011;19717;42.614;23.418;2023-06-26T08:38:26;1.67;;;1.00;;
33357;SDS011;19717;42.614;23.418;2023-06-26T08:40:53;1.00;;;1.00;;
33357;SDS011;19717;42.614;23.418;2023-06-26T08:43:19;1.10;;;1.10;;
33357;SDS011;19717;42.614;23.418;2023-06-26T08:45:47;1.10;;;1.10;;
33357;SDS011;19717;42.614;23.418;2023-06-26T08:48:16;1.08;;;1.08;;
33357;SDS011;19717;42.614;23.418;2023-06-26T08:50:43;0.98;;;0.98;;
33357;SDS011;19717;42.614;23.418;2023-06-26T08:53:29;1.00;;;1.00;;
33357;SDS011;19717;42.614;23.418;2023-06-26T08:55:57;0.70;;;0.70;;
33357;SDS011;19717;42.614;23.418;2023-06-26T08:58:23;0.80;;;0.80;;
33357;SDS011;19717;42.614;23.418;2023-06-26T09:00:49;0.95;;;0.95;;
33357;SDS011;19717;42.614;23.418;2023-06-26T09:03:19;0.90;;;0.90;;
33357;SDS011;19717;42.614;23.418;2023-06-26T09:05:45;0.80;;;0.80;;
33357;SDS011;19717;42.614;23.418;2023-06-26T09:08:11;0.95;;;0.95;;
33357;SDS011;19717;42.614;23.418;2023-06-26T09:10:38;1.52;;;1.08;;
33357;SDS011;19717;42.614;23.418;2023-06-26T09:13:04;1.00;;;1.00;;
33357;SDS011;19717;42.614;23.418;2023-06-26T09:15:43;1.65;;;1.00;;
33357;SDS011;19717;42.614;23.418;2023-06-26T09:18:09;1.08;;;1.05;;
33357;SDS011;19717;42.614;23.418;2023-06-26T09:20:36;1.00;;;1.00;;
33357;SDS011;19717;42.614;23.418;2023-06-26T09:23:02;1.60;;;1.02;;
33357;SDS011;19717;42.614;23.418;2023-06-26T09:25:28;1.00;;;1.00;;
33357;SDS011;19717;42.614;23.418;2023-06-26T09:27:54;1.00;;;1.00;;
33357;SDS011;19717;42.614;23.418;2023-06-26T09:30:20;0.98;;;0.93;;
33357;SDS011;19717;42.614;23.418;2023-06-26T09:32:46;1.10;;;1.10;;
33357;SDS011;19717;42.614;23.418;2023-06-26T09:35:14;1.10;;;1.00;;
33357;SDS011;19717;42.614;23.418;2023-06-26T09:37:40;1.00;;;1.00;;
33357;SDS011;19717;42.614;23.418;2023-06-26T09:40:06;0.95;;;0.95;;
33357;SDS011;19717;42.614;23.418;2023-06-26T09:42:33;0.88;;;0.88;;
33357;SDS011;19717;42.614;23.418;2023-06-26T09:44:59;0.90;;;0.90;;
33357;SDS011;19717;42.614;23.418;2023-06-26T09:47:25;0.90;;;0.90;;
33357;SDS011;19717;42.614;23.418;2023-06-26T09:49:51;1.05;;;1.00;;
33357;SDS011;19717;42.614;23.418;2023-06-26T09:52:17;1.90;;;1.00;;
33357;SDS011;19717;42.614;23.418;2023-06-26T09:54:45;0.85;;;0.85;;
33357;SDS011;19717;42.614;23.418;2023-06-26T09:59:37;1.20;;;0.90;;
33357;SDS011;19717;42.614;23.418;2023-06-26T10:02:05;0.88;;;0.88;;
33357;SDS011;19717;42.614;23.418;2023-06-26T10:04:31;0.90;;;0.90;;
33357;SDS011;19717;42.614;23.418;2023-06-26T10:06:58;1.10;;;0.90;;
33357;SDS011;19717;42.614;23.418;2023-06-26T10:09:31;1.38;;;0.90;;
33357;SDS011;19717;42.614;23.418;2023-06-26T10:12:02;3.42;;;1.00;;
33357;SDS011;19717;42.614;23.418;2023-06-26T10:14:39;3.75;;;1.10;;
33357;SDS011;19717;42.614;23.418;2023-06-26T10:17:09;2.72;;;1.00;;
33357;SDS011;19717;42.614;23.418;2023-06-26T10:19:41;1.13;;;1.02;;
33357;SDS011;19717;42.614;23.418;2023-06-26T10:22:09;1.27;;;1.17;;
33357;SDS011;19717;42.614;23.418;2023-06-26T10:24:37;1.00;;;1.00;;
33357;SDS011;19717;42.614;23.418;2023-06-26T10:27:14;1.10;;;1.00;;
33357;SDS011;19717;42.614;23.418;2023-06-26T10:29:41;3.72;;;0.95;;
33357;SDS011;19717;42.614;23.418;2023-06-26T10:32:10;1.13;;;1.13;;
33357;SDS011;19717;42.614;23.418;2023-06-26T10:34:38;1.10;;;1.02;;
33357;SDS011;19717;42.614;23.418;2023-06-26T10:37:04;1.08;;;1.08;;
33357;SDS011;19717;42.614;23.418;2023-06-26T10:40:04;1.80;;;0.90;;
33357;SDS011;19717;42.614;23.418;2023-06-26T10:42:34;1.00;;;1.00;;
33357;SDS011;19717;42.614;23.418;2023-06-26T10:45:13;1.10;;;1.05;;
33357;SDS011;19717;42.614;23.418;2023-06-26T10:47:40;1.00;;;1.00;;
33357;SDS011;19717;42.614;23.418;2023-06-26T10:50:17;0.90;;;0.90;;
33357;SDS011;19717;42.614;23.418;2023-06-26T10:52:44;1.50;;;0.93;;
33357;SDS011;19717;42.614;23.418;2023-06-26T10:55:10;1.55;;;1.00;;
33357;SDS011;19717;42.614;23.418;2023-06-26T10:57:36;1.00;;;1.00;;
33357;SDS011;19717;42.614;23.418;2023-06-26T11:00:13;1.67;;;1.00;;
33357;SDS011;19717;42.614;23.418;2023-06-26T11:02:49;1.17;;;1.17;;
33357;SDS011;19717;42.614;23.418;2023-06-26T11:05:26;1.00;;;1.00;;
33357;SDS011;19717;42.614;23.418;2023-06-26T11:08:02;1.08;;;1.00;;
33357;SDS011;19717;42.614;23.418;2023-06-26T11:10:29;1.20;;;1.10;;
33357;SDS011;19717;42.614;23.418;2023-06-26T11:12:57;2.15;;;1.08;;
33357;SDS011;19717;42.614;23.418;2023-06-26T11:15:24;1.23;;;1.00;;
33357;SDS011;19717;42.614;23.418;2023-06-26T11:17:50;0.90;;;0.90;;
33357;SDS011;19717;42.614;23.418;2023-06-26T11:20:17;1.92;;;1.20;;
33357;SDS011;19717;42.614;23.418;2023-06-26T11:22:43;1.08;;;0.98;;
33357;SDS011;19717;42.614;23.418;2023-06-26T11:25:09;0.88;;;0.88;;
33357;SDS011;19717;42.614;23.418;2023-06-26T11:27:39;1.13;;;1.10;;
33357;SDS011;19717;42.614;23.418;2023-06-26T11:30:06;0.90;;;0.90;;
33357;SDS011;19717;42.614;23.418;2023-06-26T11:32:33;1.00;;;1.00;;
33357;SDS011;19717;42.614;23.418;2023-06-26T11:34:59;1.45;;;1.20;;
33357;SDS011;19717;42.614;23.418;2023-06-26T11:37:25;1.13;;;1.13;;
33357;SDS011;19717;42.614;23.418;2023-06-26T11:39:51;1.88;;;0.90;;
33357;SDS011;19717;42.614;23.418;2023-06-26T11:42:21;1.20;;;1.10;;
33357;SDS011;19717;42.614;23.418;2023-06-26T11:44:47;1.10;;;1.00;;
33357;SDS011;19717;42.614;23.418;2023-06-26T11:47:19;1.10;;;1.00;;
33357;SDS011;19717;42.614;23.418;2023-06-26T11:49:46;0.88;;;0.88;;
33357;SDS011;19717;42.614;23.418;2023-06-26T11:52:13;1.00;;;0.93;;
33357;SDS011;19717;42.614;23.418;2023-06-26T11:54:39;2.65;;;1.02;;
33357;SDS011;19717;42.614;23.418;2023-06-26T11:57:05;0.90;;;0.90;;
33357;SDS011;19717;42.614;23.418;2023-06-26T11:59:35;1.05;;;0.80;;
33357;SDS011;19717;42.614;23.418;2023-06-26T12:02:09;0.90;;;0.90;;
33357;SDS011;19717;42.614;23.418;2023-06-26T12:04:36;0.80;;;0.80;;
33357;SDS011;19717;42.614;23.418;2023-06-26T12:07:05;1.10;;;0.90;;
33357;SDS011;19717;42.614;23.418;2023-06-26T12:09:33;1.13;;;1.02;;
33357;SDS011;19717;42.614;23.418;2023-06-26T12:11:59;0.80;;;0.80;;
33357;SDS011;19717;42.614;23.418;2023-06-26T12:14:25;1.48;;;0.90;;
33357;SDS011;19717;42.614;23.418;2023-06-26T12:16:55;0.73;;;0.70;;
33357;SDS011;19717;42.614;23.418;2023-06-26T12:19:25;0.85;;;0.85;;
33357;SDS011;19717;42.614;23.418;2023-06-26T12:21:52;0.80;;;0.80;;
33357;SDS011;19717;42.614;23.418;2023-06-26T12:24:23;0.80;;;0.80;;
33357;SDS011;19717;42.614;23.418;2023-06-26T12:26:55;0.70;;;0.70;;
33357;SDS011;19717;42.614;23.418;2023-06-26T12:29:35;1.02;;;1.00;;
33357;SDS011;19717;42.614;23.418;2023-06-26T12:32:01;1.00;;;1.00;;
33357;SDS011;19717;42.614;23.418;2023-06-26T12:34:28;0.90;;;0.90;;
33357;SDS011;19717;42.614;23.418;2023-06-26T12:36:59;0.90;;;0.90;;
33357;SDS011;19717;42.614;23.418;2023-06-26T12:39:25;1.73;;;0.90;;
33357;SDS011;19717;42.614;23.418;2023-06-26T12:41:57;0.75;;;0.75;;
33357;SDS011;19717;42.614;23.418;2023-06-26T12:44:27;0.90;;;0.90;;
33357;SDS011;19717;42.614;23.418;2023-06-26T12:46:59;0.98;;;0.90;;
33357;SDS011;19717;42.614;23.418;2023-06-26T12:49:29;2.10;;;0.80;;
33357;SDS011;19717;42.614;23.418;2023-06-26T12:51:56;1.08;;;0.80;;
33357;SDS011;19717;42.614;23.418;2023-06-26T12:54:22;2.47;;;1.00;;
33357;SDS011;19717;42.614;23.418;2023-06-26T12:56:49;0.90;;;0.90;;
33357;SDS011;19717;42.614;23.418;2023-06-26T12:59:15;0.98;;;0.90;;
33357;SDS011;19717;42.614;23.418;2023-06-26T13:01:41;1.83;;;0.93;;
33357;SDS011;19717;42.614;23.418;2023-06-26T13:04:07;0.73;;;0.73;;
33357;SDS011;19717;42.614;23.418;2023-06-26T13:06:33;0.90;;;0.90;;
33357;SDS011;19717;42.614;23.418;2023-06-26T13:08:59;1.00;;;1.00;;
33357;SDS011;19717;42.614;23.418;2023-06-26T13:11:29;1.00;;;0.90;;
33357;SDS011;19717;42.614;23.418;2023-06-26T13:13:55;1.00;;;1.00;;
33357;SDS011;19717;42.614;23.418;2023-06-26T13:16:21;0.68;;;0.68;;
33357;SDS011;19717;42.614;23.418;2023-06-26T13:18:47;1.00;;;1.00;;
33357;SDS011;19717;42.614;23.418;2023-06-26T13:21:13;1.20;;;1.10;;
33357;SDS011;19717;42.614;23.418;2023-06-26T13:23:40;1.80;;;1.00;;
33357;SDS011;19717;42.614;23.418;2023-06-26T13:26:06;0.80;;;0.80;;
33357;SDS011;19717;42.614;23.418;2023-06-26T13:28:32;0.90;;;0.90;;
33357;SDS011;19717;42.614;23.418;2023-06-26T13:30:58;1.00;;;1.00;;
33357;SDS011;19717;42.614;23.418;2023-06-26T13:33:25;1.00;;;0.90;;
33357;SDS011;19717;42.614;23.418;2023-06-26T13:35:51;0.90;;;0.90;;
33357;SDS011;19717;42.614;23.418;2023-06-26T13:38:19;1.08;;;0.95;;
33357;SDS011;19717;42.614;23.418;2023-06-26T13:40:45;0.75;;;0.75;;
33357;SDS011;19717;42.614;23.418;2023-06-26T13:43:11;0.80;;;0.80;;
33357;SDS011;19717;42.614;23.418;2023-06-26T13:45:38;0.90;;;0.90;;
33357;SDS011;19717;42.614;23.418;2023-06-26T13:48:04;0.80;;;0.80;;
33357;SDS011;19717;42.614;23.418;2023-06-26T13:50:30;1.33;;;0.85;;
33357;SDS011;19717;42.614;23.418;2023-06-26T13:52:56;0.80;;;0.80;;
33357;SDS011;19717;42.614;23.418;2023-06-26T13:55:22;1.00;;;0.90;;
33357;SDS011;19717;42.614;23.418;2023-06-26T13:57:48;2.50;;;0.90;;
33357;SDS011;19717;42.614;23.418;2023-06-26T14:00:14;0.90;;;0.90;;
33357;SDS011;19717;42.614;23.418;2023-06-26T14:02:45;0.77;;;0.77;;
33357;SDS011;19717;42.614;23.418;2023-06-26T14:05:11;0.75;;;0.75;;
33357;SDS011;19717;42.614;23.418;2023-06-26T14:07:37;2.10;;;1.10;;
33357;SDS011;19717;42.614;23.418;2023-06-26T14:10:03;0.88;;;0.88;;
33357;SDS011;19717;42.614;23.418;2023-06-26T14:12:30;2.30;;;1.10;;
33357;SDS011;19717;42.614;23.418;2023-06-26T14:14:56;1.30;;;1.10;;
33357;SDS011;19717;42.614;23.418;2023-06-26T14:17:23;1.25;;;1.00;;
33357;SDS011;19717;42.614;23.418;2023-06-26T14:19:51;0.88;;;0.88;;
33357;SDS011;19717;42.614;23.418;2023-06-26T14:22:18;1.27;;;1.20;;
33357;SDS011;19717;42.614;23.418;2023-06-26T14:24:44;1.17;;;1.17;;
33357;SDS011;19717;42.614;23.418;2023-06-26T14:27:10;1.75;;;1.17;;
33357;SDS011;19717;42.614;23.418;2023-06-26T14:29:36;1.10;;;1.10;;
33357;SDS011;19717;42.614;23.418;2023-06-26T14:32:03;1.00;;;1.00;;
33357;SDS011;19717;42.614;23.418;2023-06-26T14:34:29;1.80;;;1.00;;
33357;SDS011;19717;42.614;23.418;2023-06-26T14:36:55;1.20;;;1.20;;
33357;SDS011;19717;42.614;23.418;2023-06-26T14:39:21;1.55;;;1.10;;
33357;SDS011;19717;42.614;23.418;2023-06-26T14:41:48;1.00;;;1.00;;
33357;SDS011;19717;42.614;23.418;2023-06-26T14:44:14;1.30;;;1.20;;